sensor_id;sensor_type;location;lat;lon;timestamp;P1;durP1;ratioP1;P2;durP2;ratioP2
32613;SDS011;19031;51.400;6.770;2024-01-16T00:01:37;11.48;;;5.35;;
32613;SDS011;19031;51.400;6.770;2024-01-16T00:04:02;13.00;;;5.70;;
32613;SDS011;19031;51.400;6.770;2024-01-16T00:06:28;16.55;;;6.85;;
32613;SDS011;19031;51.400;6.770;2024-01-16T00:08:54;12.02;;;6.63;;
32613;SDS011;19031;51.400;6.770;2024-01-16T00:11:19;13.23;;;5.72;;
32613;SDS011;19031;51.400;6.770;2024-01-16T00:13:45;12.68;;;4.80;;
32613;SDS011;19031;51.400;6.770;2024-01-16T00:16:10;15.38;;;5.78;;
32613;SDS011;19031;51.400;6.770;2024-01-16T00:18:36;11.93;;;4.78;;
32613;SDS011;19031;51.400;6.770;2024-01-16T00:21:01;9.18;;;4.53;;
32613;SDS011;19031;51.400;6.770;2024-01-16T00:23:27;8.57;;;4.55;;
32613;SDS011;19031;51.400;6.770;2024-01-16T00:25:53;11.93;;;5.60;;
32613;SDS011;19031;51.400;6.770;2024-01-16T00:28:19;10.07;;;4.38;;
32613;SDS011;19031;51.400;6.770;2024-01-16T00:30:44;12.82;;;4.35;;
32613;SDS011;19031;51.400;6.770;2024-01-16T00:33:10;14.43;;;4.85;;
32613;SDS011;19031;51.400;6.770;2024-01-16T00:35:37;12.07;;;4.47;;
32613;SDS011;19031;51.400;6.770;2024-01-16T00:38:03;9.38;;;4.20;;
32613;SDS011;19031;51.400;6.770;2024-01-16T00:40:28;6.18;;;4.13;;
32613;SDS011;19031;51.400;6.770;2024-01-16T00:42:54;6.72;;;4.00;;
32613;SDS011;19031;51.400;6.770;2024-01-16T00:45:19;10.85;;;4.35;;
32613;SDS011;19031;51.400;6.770;2024-01-16T00:47:46;7.38;;;3.55;;
32613;SDS011;19031;51.400;6.770;2024-01-16T00:50:12;10.77;;;4.40;;
32613;SDS011;19031;51.400;6.770;2024-01-16T00:52:37;11.10;;;4.00;;
32613;SDS011;19031;51.400;6.770;2024-01-16T00:55:03;13.60;;;4.90;;
32613;SDS011;19031;51.400;6.770;2024-01-16T00:57:29;7.28;;;4.13;;
32613;SDS011;19031;51.400;6.770;2024-01-16T00:59:55;9.07;;;4.80;;
32613;SDS011;19031;51.400;6.770;2024-01-16T01:02:21;12.30;;;4.90;;
32613;SDS011;19031;51.400;6.770;2024-01-16T01:04:46;12.13;;;4.78;;
32613;SDS011;19031;51.400;6.770;2024-01-16T01:07:13;9.95;;;4.85;;
32613;SDS011;19031;51.400;6.770;2024-01-16T01:09:39;9.30;;;4.40;;
32613;SDS011;19031;51.400;6.770;2024-01-16T01:12:05;13.23;;;4.57;;
32613;SDS011;19031;51.400;6.770;2024-01-16T01:14:31;11.23;;;4.68;;
32613;SDS011;19031;51.400;6.770;2024-01-16T01:16:56;10.38;;;4.07;;
32613;SDS011;19031;51.400;6.770;2024-01-16T01:19:22;8.13;;;4.95;;
32613;SDS011;19031;51.400;6.770;2024-01-16T01:21:48;9.30;;;4.57;;
32613;SDS011;19031;51.400;6.770;2024-01-16T01:24:14;12.93;;;5.13;;
32613;SDS011;19031;51.400;6.770;2024-01-16T01:26:42;13.65;;;5.90;;
32613;SDS011;19031;51.400;6.770;2024-01-16T01:29:09;12.23;;;5.63;;
32613;SDS011;19031;51.400;6.770;2024-01-16T01:31:34;12.65;;;5.28;;
32613;SDS011;19031;51.400;6.770;2024-01-16T01:34:00;12.85;;;5.68;;
32613;SDS011;19031;51.400;6.770;2024-01-16T01:36:26;11.23;;;5.18;;
32613;SDS011;19031;51.400;6.770;2024-01-16T01:38:52;16.73;;;5.70;;
32613;SDS011;19031;51.400;6.770;2024-01-16T01:41:17;13.05;;;7.05;;
32613;SDS011;19031;51.400;6.770;2024-01-16T01:43:43;18.90;;;8.63;;
32613;SDS011;19031;51.400;6.770;2024-01-16T01:46:09;18.60;;;8.75;;
32613;SDS011;19031;51.400;6.770;2024-01-16T01:48:40;15.77;;;8.15;;
32613;SDS011;19031;51.400;6.770;2024-01-16T01:51:06;18.90;;;8.75;;
32613;SDS011;19031;51.400;6.770;2024-01-16T01:53:33;16.23;;;8.50;;
32613;SDS011;19031;51.400;6.770;2024-01-16T01:56:00;19.50;;;9.98;;
32613;SDS011;19031;51.400;6.770;2024-01-16T01:58:28;21.38;;;10.15;;
32613;SDS011;19031;51.400;6.770;2024-01-16T02:00:54;20.20;;;9.77;;
32613;SDS011;19031;51.400;6.770;2024-01-16T02:03:20;11.90;;;8.65;;
32613;SDS011;19031;51.400;6.770;2024-01-16T02:05:48;17.02;;;8.98;;
32613;SDS011;19031;51.400;6.770;2024-01-16T02:08:14;14.60;;;9.05;;
32613;SDS011;19031;51.400;6.770;2024-01-16T02:10:40;22.67;;;11.23;;
32613;SDS011;19031;51.400;6.770;2024-01-16T02:13:10;18.00;;;10.50;;
32613;SDS011;19031;51.400;6.770;2024-01-16T02:15:36;20.38;;;10.38;;
32613;SDS011;19031;51.400;6.770;2024-01-16T02:18:04;23.38;;;10.43;;
32613;SDS011;19031;51.400;6.770;2024-01-16T02:20:30;28.88;;;11.20;;
32613;SDS011;19031;51.400;6.770;2024-01-16T02:22:56;18.92;;;10.60;;
32613;SDS011;19031;51.400;6.770;2024-01-16T02:25:28;20.70;;;11.23;;
32613;SDS011;19031;51.400;6.770;2024-01-16T02:27:53;18.90;;;11.13;;
32613;SDS011;19031;51.400;6.770;2024-01-16T02:30:19;22.35;;;11.73;;
32613;SDS011;19031;51.400;6.770;2024-01-16T02:32:44;23.67;;;12.00;;
32613;SDS011;19031;51.400;6.770;2024-01-16T02:35:10;21.05;;;12.95;;
32613;SDS011;19031;51.400;6.770;2024-01-16T02:37:36;24.35;;;13.25;;
32613;SDS011;19031;51.400;6.770;2024-01-16T02:40:01;24.80;;;13.52;;
32613;SDS011;19031;51.400;6.770;2024-01-16T02:42:31;21.10;;;13.23;;
32613;SDS011;19031;51.400;6.770;2024-01-16T02:44:59;22.77;;;13.63;;
32613;SDS011;19031;51.400;6.770;2024-01-16T02:47:25;31.38;;;14.43;;
32613;SDS011;19031;51.400;6.770;2024-01-16T02:49:50;25.27;;;13.98;;
32613;SDS011;19031;51.400;6.770;2024-01-16T02:52:16;22.63;;;14.05;;
32613;SDS011;19031;51.400;6.770;2024-01-16T02:54:41;29.80;;;15.98;;
32613;SDS011;19031;51.400;6.770;2024-01-16T02:57:07;25.90;;;15.65;;
32613;SDS011;19031;51.400;6.770;2024-01-16T02:59:32;27.02;;;14.70;;
32613;SDS011;19031;51.400;6.770;2024-01-16T03:01:58;23.50;;;13.93;;
32613;SDS011;19031;51.400;6.770;2024-01-16T03:04:23;25.42;;;15.23;;
32613;SDS011;19031;51.400;6.770;2024-01-16T03:06:49;28.10;;;14.80;;
32613;SDS011;19031;51.400;6.770;2024-01-16T03:09:15;21.23;;;14.00;;
32613;SDS011;19031;51.400;6.770;2024-01-16T03:11:41;23.85;;;14.13;;
32613;SDS011;19031;51.400;6.770;2024-01-16T03:14:06;22.95;;;13.57;;
32613;SDS011;19031;51.400;6.770;2024-01-16T03:16:32;23.85;;;13.05;;
32613;SDS011;19031;51.400;6.770;2024-01-16T03:18:58;27.83;;;14.48;;
32613;SDS011;19031;51.400;6.770;2024-01-16T03:21:23;31.08;;;14.63;;
32613;SDS011;19031;51.400;6.770;2024-01-16T03:23:49;25.90;;;13.55;;
32613;SDS011;19031;51.400;6.770;2024-01-16T03:26:15;28.55;;;15.70;;
32613;SDS011;19031;51.400;6.770;2024-01-16T03:28:41;26.05;;;14.45;;
32613;SDS011;19031;51.400;6.770;2024-01-16T03:31:07;25.88;;;14.00;;
32613;SDS011;19031;51.400;6.770;2024-01-16T03:33:33;31.60;;;15.95;;
32613;SDS011;19031;51.400;6.770;2024-01-16T03:36:06;29.40;;;16.35;;
32613;SDS011;19031;51.400;6.770;2024-01-16T03:38:32;27.83;;;16.15;;
32613;SDS011;19031;51.400;6.770;2024-01-16T03:40:59;30.55;;;15.93;;
32613;SDS011;19031;51.400;6.770;2024-01-16T03:43:24;34.25;;;16.25;;
32613;SDS011;19031;51.400;6.770;2024-01-16T03:45:50;28.15;;;14.93;;
32613;SDS011;19031;51.400;6.770;2024-01-16T03:48:15;33.13;;;15.93;;
32613;SDS011;19031;51.400;6.770;2024-01-16T03:50:41;36.30;;;15.80;;
32613;SDS011;19031;51.400;6.770;2024-01-16T03:53:09;26.48;;;15.00;;
32613;SDS011;19031;51.400;6.770;2024-01-16T03:55:34;27.05;;;14.95;;
32613;SDS011;19031;51.400;6.770;2024-01-16T03:58:00;26.88;;;13.93;;
32613;SDS011;19031;51.400;6.770;2024-01-16T04:00:25;24.05;;;14.30;;
32613;SDS011;19031;51.400;6.770;2024-01-16T04:02:51;22.55;;;13.85;;
32613;SDS011;19031;51.400;6.770;2024-01-16T04:05:16;22.15;;;13.60;;
32613;SDS011;19031;51.400;6.770;2024-01-16T04:07:42;24.60;;;13.35;;
32613;SDS011;19031;51.400;6.770;2024-01-16T04:10:07;26.50;;;13.00;;
32613;SDS011;19031;51.400;6.770;2024-01-16T04:12:33;28.58;;;13.82;;
32613;SDS011;19031;51.400;6.770;2024-01-16T04:14:59;24.92;;;12.98;;
32613;SDS011;19031;51.400;6.770;2024-01-16T04:17:24;25.45;;;12.45;;
32613;SDS011;19031;51.400;6.770;2024-01-16T04:19:50;22.63;;;11.18;;
32613;SDS011;19031;51.400;6.770;2024-01-16T04:22:15;18.55;;;9.68;;
32613;SDS011;19031;51.400;6.770;2024-01-16T04:24:41;25.08;;;10.90;;
32613;SDS011;19031;51.400;6.770;2024-01-16T04:27:07;20.05;;;10.30;;
32613;SDS011;19031;51.400;6.770;2024-01-16T04:29:32;20.95;;;9.82;;
32613;SDS011;19031;51.400;6.770;2024-01-16T04:31:58;16.85;;;9.13;;
32613;SDS011;19031;51.400;6.770;2024-01-16T04:34:24;19.23;;;8.50;;
32613;SDS011;19031;51.400;6.770;2024-01-16T04:36:49;14.95;;;8.98;;
32613;SDS011;19031;51.400;6.770;2024-01-16T04:39:16;15.02;;;8.50;;
32613;SDS011;19031;51.400;6.770;2024-01-16T04:41:42;16.75;;;8.80;;
32613;SDS011;19031;51.400;6.770;2024-01-16T04:44:08;16.70;;;7.80;;
32613;SDS011;19031;51.400;6.770;2024-01-16T04:46:34;16.52;;;8.13;;
32613;SDS011;19031;51.400;6.770;2024-01-16T04:48:59;17.55;;;8.27;;
32613;SDS011;19031;51.400;6.770;2024-01-16T04:51:25;13.80;;;7.95;;
32613;SDS011;19031;51.400;6.770;2024-01-16T04:53:50;14.70;;;8.82;;
32613;SDS011;19031;51.400;6.770;2024-01-16T04:56:17;12.85;;;7.18;;
32613;SDS011;19031;51.400;6.770;2024-01-16T04:58:43;15.00;;;6.97;;
32613;SDS011;19031;51.400;6.770;2024-01-16T05:01:08;14.43;;;7.10;;
32613;SDS011;19031;51.400;6.770;2024-01-16T05:03:34;16.73;;;8.05;;
32613;SDS011;19031;51.400;6.770;2024-01-16T05:05:59;12.15;;;6.75;;
32613;SDS011;19031;51.400;6.770;2024-01-16T05:08:25;15.05;;;7.47;;
32613;SDS011;19031;51.400;6.770;2024-01-16T05:10:51;12.40;;;7.03;;
32613;SDS011;19031;51.400;6.770;2024-01-16T05:13:16;16.20;;;7.22;;
32613;SDS011;19031;51.400;6.770;2024-01-16T05:15:42;14.35;;;6.85;;
32613;SDS011;19031;51.400;6.770;2024-01-16T05:18:07;15.82;;;8.18;;
32613;SDS011;19031;51.400;6.770;2024-01-16T05:20:34;17.88;;;9.52;;
32613;SDS011;19031;51.400;6.770;2024-01-16T05:23:00;21.23;;;9.05;;
32613;SDS011;19031;51.400;6.770;2024-01-16T05:25:25;15.77;;;8.60;;
32613;SDS011;19031;51.400;6.770;2024-01-16T05:27:51;19.48;;;9.77;;
32613;SDS011;19031;51.400;6.770;2024-01-16T05:30:16;19.08;;;9.68;;
32613;SDS011;19031;51.400;6.770;2024-01-16T05:32:42;16.58;;;10.85;;
32613;SDS011;19031;51.400;6.770;2024-01-16T05:35:07;18.00;;;10.30;;
32613;SDS011;19031;51.400;6.770;2024-01-16T05:37:34;20.15;;;11.00;;
32613;SDS011;19031;51.400;6.770;2024-01-16T05:40:00;18.65;;;10.57;;
32613;SDS011;19031;51.400;6.770;2024-01-16T05:42:27;21.50;;;11.88;;
32613;SDS011;19031;51.400;6.770;2024-01-16T05:44:54;28.00;;;14.43;;
32613;SDS011;19031;51.400;6.770;2024-01-16T05:47:19;23.10;;;12.77;;
32613;SDS011;19031;51.400;6.770;2024-01-16T05:49:45;27.17;;;13.68;;
32613;SDS011;19031;51.400;6.770;2024-01-16T05:52:10;28.25;;;15.18;;
32613;SDS011;19031;51.400;6.770;2024-01-16T05:54:36;25.85;;;14.75;;
32613;SDS011;19031;51.400;6.770;2024-01-16T05:57:02;29.60;;;15.15;;
32613;SDS011;19031;51.400;6.770;2024-01-16T05:59:27;31.27;;;14.77;;
32613;SDS011;19031;51.400;6.770;2024-01-16T06:01:53;21.50;;;13.80;;
32613;SDS011;19031;51.400;6.770;2024-01-16T06:04:19;31.88;;;13.93;;
32613;SDS011;19031;51.400;6.770;2024-01-16T06:06:44;26.45;;;13.30;;
32613;SDS011;19031;51.400;6.770;2024-01-16T06:09:12;25.73;;;12.77;;
32613;SDS011;19031;51.400;6.770;2024-01-16T06:11:39;21.13;;;13.43;;
32613;SDS011;19031;51.400;6.770;2024-01-16T06:14:05;24.30;;;12.32;;
32613;SDS011;19031;51.400;6.770;2024-01-16T06:16:31;20.85;;;12.20;;
32613;SDS011;19031;51.400;6.770;2024-01-16T06:18:57;25.52;;;13.93;;
32613;SDS011;19031;51.400;6.770;2024-01-16T06:21:23;26.95;;;13.00;;
32613;SDS011;19031;51.400;6.770;2024-01-16T06:23:48;25.13;;;12.88;;
32613;SDS011;19031;51.400;6.770;2024-01-16T06:26:14;27.73;;;12.20;;
32613;SDS011;19031;51.400;6.770;2024-01-16T06:28:40;23.88;;;12.63;;
32613;SDS011;19031;51.400;6.770;2024-01-16T06:31:07;28.92;;;11.70;;
32613;SDS011;19031;51.400;6.770;2024-01-16T06:33:33;32.78;;;13.15;;
32613;SDS011;19031;51.400;6.770;2024-01-16T06:35:59;29.10;;;11.38;;
32613;SDS011;19031;51.400;6.770;2024-01-16T06:38:25;22.83;;;11.48;;
32613;SDS011;19031;51.400;6.770;2024-01-16T06:40:50;20.75;;;9.35;;
32613;SDS011;19031;51.400;6.770;2024-01-16T06:43:16;20.80;;;10.40;;
32613;SDS011;19031;51.400;6.770;2024-01-16T06:45:42;26.25;;;9.10;;
32613;SDS011;19031;51.400;6.770;2024-01-16T06:48:08;22.52;;;10.10;;
32613;SDS011;19031;51.400;6.770;2024-01-16T06:50:33;22.80;;;8.95;;
32613;SDS011;19031;51.400;6.770;2024-01-16T06:52:59;21.48;;;9.13;;
32613;SDS011;19031;51.400;6.770;2024-01-16T06:55:24;18.95;;;8.13;;
32613;SDS011;19031;51.400;6.770;2024-01-16T06:57:50;28.40;;;8.30;;
32613;SDS011;19031;51.400;6.770;2024-01-16T07:00:15;17.25;;;8.82;;
32613;SDS011;19031;51.400;6.770;2024-01-16T07:02:41;24.85;;;8.43;;
32613;SDS011;19031;51.400;6.770;2024-01-16T07:05:11;20.88;;;8.65;;
32613;SDS011;19031;51.400;6.770;2024-01-16T07:07:37;17.38;;;8.65;;
32613;SDS011;19031;51.400;6.770;2024-01-16T07:10:03;22.20;;;9.05;;
32613;SDS011;19031;51.400;6.770;2024-01-16T07:12:29;22.40;;;8.07;;
32613;SDS011;19031;51.400;6.770;2024-01-16T07:14:54;19.58;;;7.47;;
32613;SDS011;19031;51.400;6.770;2024-01-16T07:17:20;19.05;;;7.40;;
32613;SDS011;19031;51.400;6.770;2024-01-16T07:19:45;20.20;;;6.50;;
32613;SDS011;19031;51.400;6.770;2024-01-16T07:22:11;21.60;;;6.32;;
32613;SDS011;19031;51.400;6.770;2024-01-16T07:24:36;18.10;;;6.45;;
32613;SDS011;19031;51.400;6.770;2024-01-16T07:27:02;19.67;;;7.90;;
32613;SDS011;19031;51.400;6.770;2024-01-16T07:29:27;23.00;;;7.28;;
32613;SDS011;19031;51.400;6.770;2024-01-16T07:31:53;24.80;;;6.50;;
32613;SDS011;19031;51.400;6.770;2024-01-16T07:34:19;16.48;;;5.93;;
32613;SDS011;19031;51.400;6.770;2024-01-16T07:36:47;13.65;;;5.40;;
32613;SDS011;19031;51.400;6.770;2024-01-16T07:39:13;17.77;;;5.22;;
32613;SDS011;19031;51.400;6.770;2024-01-16T07:41:40;19.70;;;5.35;;
32613;SDS011;19031;51.400;6.770;2024-01-16T07:44:06;19.70;;;6.10;;
32613;SDS011;19031;51.400;6.770;2024-01-16T07:46:32;14.15;;;5.28;;
32613;SDS011;19031;51.400;6.770;2024-01-16T07:48:58;18.55;;;4.90;;
32613;SDS011;19031;51.400;6.770;2024-01-16T07:51:24;16.17;;;4.75;;
32613;SDS011;19031;51.400;6.770;2024-01-16T07:54:04;15.15;;;5.40;;
32613;SDS011;19031;51.400;6.770;2024-01-16T07:56:34;18.17;;;5.78;;
32613;SDS011;19031;51.400;6.770;2024-01-16T07:59:00;14.77;;;4.88;;
32613;SDS011;19031;51.400;6.770;2024-01-16T08:01:26;12.77;;;4.68;;
32613;SDS011;19031;51.400;6.770;2024-01-16T08:03:53;11.13;;;5.35;;
32613;SDS011;19031;51.400;6.770;2024-01-16T08:06:22;10.02;;;4.53;;
32613;SDS011;19031;51.400;6.770;2024-01-16T08:08:48;17.42;;;4.68;;
32613;SDS011;19031;51.400;6.770;2024-01-16T08:11:15;23.42;;;5.13;;
32613;SDS011;19031;51.400;6.770;2024-01-16T08:13:40;13.82;;;4.40;;
32613;SDS011;19031;51.400;6.770;2024-01-16T08:16:06;14.57;;;5.68;;
32613;SDS011;19031;51.400;6.770;2024-01-16T08:18:33;19.67;;;4.63;;
32613;SDS011;19031;51.400;6.770;2024-01-16T08:20:58;15.82;;;4.65;;
32613;SDS011;19031;51.400;6.770;2024-01-16T08:23:24;14.70;;;5.03;;
32613;SDS011;19031;51.400;6.770;2024-01-16T08:25:50;17.05;;;4.63;;
32613;SDS011;19031;51.400;6.770;2024-01-16T08:28:17;24.20;;;6.20;;
32613;SDS011;19031;51.400;6.770;2024-01-16T08:30:42;17.23;;;5.70;;
32613;SDS011;19031;51.400;6.770;2024-01-16T08:33:08;19.77;;;5.88;;
32613;SDS011;19031;51.400;6.770;2024-01-16T08:35:34;15.02;;;4.45;;
32613;SDS011;19031;51.400;6.770;2024-01-16T08:37:59;12.38;;;3.90;;
32613;SDS011;19031;51.400;6.770;2024-01-16T08:40:26;14.68;;;3.83;;
32613;SDS011;19031;51.400;6.770;2024-01-16T08:42:51;16.42;;;4.00;;
32613;SDS011;19031;51.400;6.770;2024-01-16T08:45:20;11.75;;;4.25;;
32613;SDS011;19031;51.400;6.770;2024-01-16T08:47:46;13.02;;;4.28;;
32613;SDS011;19031;51.400;6.770;2024-01-16T08:50:12;11.82;;;3.85;;
32613;SDS011;19031;51.400;6.770;2024-01-16T08:52:39;12.82;;;5.40;;
32613;SDS011;19031;51.400;6.770;2024-01-16T08:55:05;14.02;;;4.18;;
32613;SDS011;19031;51.400;6.770;2024-01-16T08:57:31;12.00;;;4.43;;
32613;SDS011;19031;51.400;6.770;2024-01-16T08:59:57;9.70;;;4.38;;
32613;SDS011;19031;51.400;6.770;2024-01-16T09:02:22;14.93;;;4.93;;
32613;SDS011;19031;51.400;6.770;2024-01-16T09:04:49;20.23;;;4.72;;
32613;SDS011;19031;51.400;6.770;2024-01-16T09:07:15;12.20;;;3.88;;
32613;SDS011;19031;51.400;6.770;2024-01-16T09:09:42;14.98;;;4.13;;
32613;SDS011;19031;51.400;6.770;2024-01-16T09:12:11;9.45;;;3.55;;
32613;SDS011;19031;51.400;6.770;2024-01-16T09:14:37;17.92;;;4.90;;
32613;SDS011;19031;51.400;6.770;2024-01-16T09:17:02;24.75;;;5.30;;
32613;SDS011;19031;51.400;6.770;2024-01-16T09:19:28;23.08;;;6.07;;
32613;SDS011;19031;51.400;6.770;2024-01-16T09:21:54;15.35;;;4.50;;
32613;SDS011;19031;51.400;6.770;2024-01-16T09:24:20;25.52;;;6.10;;
32613;SDS011;19031;51.400;6.770;2024-01-16T09:26:46;12.45;;;4.38;;
32613;SDS011;19031;51.400;6.770;2024-01-16T09:29:12;11.75;;;5.40;;
32613;SDS011;19031;51.400;6.770;2024-01-16T09:31:39;18.85;;;4.25;;
32613;SDS011;19031;51.400;6.770;2024-01-16T09:34:05;16.20;;;4.05;;
32613;SDS011;19031;51.400;6.770;2024-01-16T09:36:31;13.35;;;4.40;;
32613;SDS011;19031;51.400;6.770;2024-01-16T09:38:56;12.75;;;4.53;;
32613;SDS011;19031;51.400;6.770;2024-01-16T09:41:23;14.15;;;5.00;;
32613;SDS011;19031;51.400;6.770;2024-01-16T09:43:48;11.75;;;5.53;;
32613;SDS011;19031;51.400;6.770;2024-01-16T09:46:16;21.15;;;5.55;;
32613;SDS011;19031;51.400;6.770;2024-01-16T09:48:44;14.68;;;5.68;;
32613;SDS011;19031;51.400;6.770;2024-01-16T09:51:12;14.05;;;4.60;;
32613;SDS011;19031;51.400;6.770;2024-01-16T09:53:42;15.52;;;4.70;;
32613;SDS011;19031;51.400;6.770;2024-01-16T09:56:09;16.02;;;5.45;;
32613;SDS011;19031;51.400;6.770;2024-01-16T09:58:40;21.85;;;4.93;;
32613;SDS011;19031;51.400;6.770;2024-01-16T10:01:06;14.63;;;5.15;;
32613;SDS011;19031;51.400;6.770;2024-01-16T10:03:32;15.95;;;4.65;;
32613;SDS011;19031;51.400;6.770;2024-01-16T10:06:02;17.25;;;5.25;;
32613;SDS011;19031;51.400;6.770;2024-01-16T10:08:31;9.90;;;3.75;;
32613;SDS011;19031;51.400;6.770;2024-01-16T10:10:57;14.65;;;4.00;;
32613;SDS011;19031;51.400;6.770;2024-01-16T10:13:26;9.55;;;4.07;;
32613;SDS011;19031;51.400;6.770;2024-01-16T10:15:52;19.02;;;5.57;;
32613;SDS011;19031;51.400;6.770;2024-01-16T10:18:26;16.65;;;6.15;;
32613;SDS011;19031;51.400;6.770;2024-01-16T10:20:52;21.85;;;4.55;;
32613;SDS011;19031;51.400;6.770;2024-01-16T10:23:25;12.23;;;4.38;;
32613;SDS011;19031;51.400;6.770;2024-01-16T10:28:39;12.32;;;4.15;;
32613;SDS011;19031;51.400;6.770;2024-01-16T10:31:06;13.45;;;4.47;;
32613;SDS011;19031;51.400;6.770;2024-01-16T10:33:33;9.82;;;3.95;;
32613;SDS011;19031;51.400;6.770;2024-01-16T10:39:02;15.85;;;4.38;;
32613;SDS011;19031;51.400;6.770;2024-01-16T10:41:28;13.85;;;4.53;;
32613;SDS011;19031;51.400;6.770;2024-01-16T10:44:03;14.02;;;5.10;;
32613;SDS011;19031;51.400;6.770;2024-01-16T10:46:29;20.10;;;6.93;;
32613;SDS011;19031;51.400;6.770;2024-01-16T10:48:59;19.73;;;5.30;;
32613;SDS011;19031;51.400;6.770;2024-01-16T10:51:29;12.50;;;4.40;;
32613;SDS011;19031;51.400;6.770;2024-01-16T10:54:04;11.73;;;4.28;;
32613;SDS011;19031;51.400;6.770;2024-01-16T10:56:36;6.95;;;3.65;;
32613;SDS011;19031;51.400;6.770;2024-01-16T11:01:43;16.67;;;4.13;;
32613;SDS011;19031;51.400;6.770;2024-01-16T11:04:12;23.17;;;4.10;;
32613;SDS011;19031;51.400;6.770;2024-01-16T11:06:38;12.43;;;3.60;;
32613;SDS011;19031;51.400;6.770;2024-01-16T11:09:05;8.23;;;3.10;;
32613;SDS011;19031;51.400;6.770;2024-01-16T11:11:33;13.32;;;4.30;;
32613;SDS011;19031;51.400;6.770;2024-01-16T11:13:59;16.38;;;6.93;;
32613;SDS011;19031;51.400;6.770;2024-01-16T11:16:27;13.55;;;5.13;;
32613;SDS011;19031;51.400;6.770;2024-01-16T11:18:56;14.63;;;4.60;;
32613;SDS011;19031;51.400;6.770;2024-01-16T11:21:22;14.57;;;4.72;;
32613;SDS011;19031;51.400;6.770;2024-01-16T11:23:49;11.48;;;4.05;;
32613;SDS011;19031;51.400;6.770;2024-01-16T11:26:27;15.23;;;4.35;;
32613;SDS011;19031;51.400;6.770;2024-01-16T11:28:58;10.25;;;3.83;;
32613;SDS011;19031;51.400;6.770;2024-01-16T11:31:46;16.45;;;4.53;;
32613;SDS011;19031;51.400;6.770;2024-01-16T11:34:12;10.35;;;4.28;;
32613;SDS011;19031;51.400;6.770;2024-01-16T11:36:50;9.13;;;3.90;;
32613;SDS011;19031;51.400;6.770;2024-01-16T11:39:21;17.83;;;4.40;;
32613;SDS011;19031;51.400;6.770;2024-01-16T11:41:57;12.95;;;3.83;;
32613;SDS011;19031;51.400;6.770;2024-01-16T11:44:36;10.30;;;4.15;;
32613;SDS011;19031;51.400;6.770;2024-01-16T11:47:03;18.50;;;4.40;;
32613;SDS011;19031;51.400;6.770;2024-01-16T11:49:29;19.63;;;4.50;;
32613;SDS011;19031;51.400;6.770;2024-01-16T11:51:58;9.95;;;3.65;;
32613;SDS011;19031;51.400;6.770;2024-01-16T11:54:24;10.10;;;4.15;;
32613;SDS011;19031;51.400;6.770;2024-01-16T12:02:37;8.20;;;3.28;;
32613;SDS011;19031;51.400;6.770;2024-01-16T12:05:11;11.35;;;3.55;;
32613;SDS011;19031;51.400;6.770;2024-01-16T12:07:46;15.88;;;4.07;;
32613;SDS011;19031;51.400;6.770;2024-01-16T12:10:17;11.02;;;4.05;;
32613;SDS011;19031;51.400;6.770;2024-01-16T12:12:44;14.60;;;3.92;;
32613;SDS011;19031;51.400;6.770;2024-01-16T12:15:14;10.25;;;3.38;;
32613;SDS011;19031;51.400;6.770;2024-01-16T12:20:22;11.23;;;3.78;;
32613;SDS011;19031;51.400;6.770;2024-01-16T12:22:53;15.18;;;4.47;;
32613;SDS011;19031;51.400;6.770;2024-01-16T12:25:22;13.48;;;4.22;;
32613;SDS011;19031;51.400;6.770;2024-01-16T12:27:58;9.50;;;4.40;;
32613;SDS011;19031;51.400;6.770;2024-01-16T12:30:29;17.42;;;4.70;;
32613;SDS011;19031;51.400;6.770;2024-01-16T12:33:09;13.48;;;4.10;;
32613;SDS011;19031;51.400;6.770;2024-01-16T12:35:40;12.45;;;4.25;;
32613;SDS011;19031;51.400;6.770;2024-01-16T12:38:08;17.67;;;4.25;;
32613;SDS011;19031;51.400;6.770;2024-01-16T12:40:35;16.45;;;4.28;;
32613;SDS011;19031;51.400;6.770;2024-01-16T12:43:01;14.93;;;4.45;;
32613;SDS011;19031;51.400;6.770;2024-01-16T12:45:28;10.68;;;4.10;;
32613;SDS011;19031;51.400;6.770;2024-01-16T12:47:54;17.58;;;4.28;;
32613;SDS011;19031;51.400;6.770;2024-01-16T12:50:23;11.13;;;4.22;;
32613;SDS011;19031;51.400;6.770;2024-01-16T12:53:10;9.88;;;3.88;;
32613;SDS011;19031;51.400;6.770;2024-01-16T12:55:37;10.57;;;4.40;;
32613;SDS011;19031;51.400;6.770;2024-01-16T12:58:11;10.93;;;3.95;;
32613;SDS011;19031;51.400;6.770;2024-01-16T13:00:41;13.02;;;4.63;;
32613;SDS011;19031;51.400;6.770;2024-01-16T13:03:08;11.27;;;4.40;;
32613;SDS011;19031;51.400;6.770;2024-01-16T13:06:00;15.80;;;4.10;;
32613;SDS011;19031;51.400;6.770;2024-01-16T13:08:26;13.48;;;4.75;;
32613;SDS011;19031;51.400;6.770;2024-01-16T13:11:05;15.40;;;4.72;;
32613;SDS011;19031;51.400;6.770;2024-01-16T13:13:32;21.00;;;5.15;;
32613;SDS011;19031;51.400;6.770;2024-01-16T13:15:58;17.63;;;4.97;;
32613;SDS011;19031;51.400;6.770;2024-01-16T13:18:26;13.43;;;4.93;;
32613;SDS011;19031;51.400;6.770;2024-01-16T13:20:54;14.35;;;4.70;;
32613;SDS011;19031;51.400;6.770;2024-01-16T13:23:24;13.48;;;6.03;;
32613;SDS011;19031;51.400;6.770;2024-01-16T13:25:50;10.55;;;4.60;;
32613;SDS011;19031;51.400;6.770;2024-01-16T13:28:17;13.68;;;4.75;;
32613;SDS011;19031;51.400;6.770;2024-01-16T13:30:44;9.52;;;4.95;;
32613;SDS011;19031;51.400;6.770;2024-01-16T13:33:11;13.88;;;5.18;;
32613;SDS011;19031;51.400;6.770;2024-01-16T13:35:38;14.20;;;4.93;;
32613;SDS011;19031;51.400;6.770;2024-01-16T13:38:06;12.70;;;4.80;;
32613;SDS011;19031;51.400;6.770;2024-01-16T13:40:33;16.83;;;5.22;;
32613;SDS011;19031;51.400;6.770;2024-01-16T13:42:59;12.90;;;4.85;;
32613;SDS011;19031;51.400;6.770;2024-01-16T13:45:25;14.43;;;5.35;;
32613;SDS011;19031;51.400;6.770;2024-01-16T13:47:51;9.23;;;4.80;;
32613;SDS011;19031;51.400;6.770;2024-01-16T13:50:17;12.88;;;5.60;;
32613;SDS011;19031;51.400;6.770;2024-01-16T13:52:42;16.70;;;5.35;;
32613;SDS011;19031;51.400;6.770;2024-01-16T13:55:09;10.95;;;4.82;;
32613;SDS011;19031;51.400;6.770;2024-01-16T13:57:34;13.27;;;4.97;;
32613;SDS011;19031;51.400;6.770;2024-01-16T14:00:05;11.10;;;4.50;;
32613;SDS011;19031;51.400;6.770;2024-01-16T14:02:32;12.90;;;4.85;;
32613;SDS011;19031;51.400;6.770;2024-01-16T14:05:03;13.25;;;5.03;;
32613;SDS011;19031;51.400;6.770;2024-01-16T14:07:30;11.57;;;5.10;;
32613;SDS011;19031;51.400;6.770;2024-01-16T14:09:56;10.75;;;5.45;;
32613;SDS011;19031;51.400;6.770;2024-01-16T14:12:23;14.57;;;5.78;;
32613;SDS011;19031;51.400;6.770;2024-01-16T14:14:49;12.05;;;5.70;;
32613;SDS011;19031;51.400;6.770;2024-01-16T14:17:16;15.50;;;5.45;;
32613;SDS011;19031;51.400;6.770;2024-01-16T14:19:41;14.10;;;5.15;;
32613;SDS011;19031;51.400;6.770;2024-01-16T14:22:07;13.48;;;4.65;;
32613;SDS011;19031;51.400;6.770;2024-01-16T14:24:36;12.15;;;4.40;;
32613;SDS011;19031;51.400;6.770;2024-01-16T14:27:02;12.88;;;5.32;;
32613;SDS011;19031;51.400;6.770;2024-01-16T14:29:29;17.88;;;4.45;;
32613;SDS011;19031;51.400;6.770;2024-01-16T14:31:54;17.17;;;4.90;;
32613;SDS011;19031;51.400;6.770;2024-01-16T14:34:21;16.60;;;5.10;;
32613;SDS011;19031;51.400;6.770;2024-01-16T14:36:48;11.63;;;5.90;;
32613;SDS011;19031;51.400;6.770;2024-01-16T14:39:14;11.63;;;4.32;;
32613;SDS011;19031;51.400;6.770;2024-01-16T14:41:46;11.73;;;4.70;;
32613;SDS011;19031;51.400;6.770;2024-01-16T14:44:15;13.10;;;5.82;;
32613;SDS011;19031;51.400;6.770;2024-01-16T14:46:41;12.05;;;5.10;;
32613;SDS011;19031;51.400;6.770;2024-01-16T14:49:09;10.93;;;4.53;;